Time;durP1;ratioP1;P1;durP2;ratioP2;P2;SDS_P1;SDS_P2;PMS_P1;PMS_P2;Temp;Humidity;BMP_temperature;BMP_pressure;BME280_temperature;BME280_humidity;BME280_pressure;Samples;Min_cycle;Max_cycle;Signal;HPM_P1;HPM_P2
2022/01/16 00:04:50;;;;;;;51.72;25.08;;;;;;;0.65;100.00;102239.00;5245085;28;20064;-69
2022/01/16 00:07:21;;;;;;;63.67;25.92;;;;;;;0.49;100.00;102230.44;5249729;28;20043;-69
2022/01/16 00:09:53;;;;;;;52.58;25.75;;;;;;;0.56;100.00;102230.34;5251928;28;20052;-69
2022/01/16 00:12:24;;;;;;;43.35;23.48;;;;;;;0.57;100.00;102236.47;5254302;28;20503;-70
2022/01/16 00:14:55;;;;;;;48.97;25.48;;;;;;;0.56;100.00;102237.38;5250965;28;20394;-70
2022/01/16 00:17:28;;;;;;;49.75;25.02;;;;;;;0.50;100.00;102234.78;5244440;28;20029;-70
2022/01/16 00:19:59;;;;;;;49.35;25.35;;;;;;;0.57;100.00;102245.19;5248112;28;20039;-70
2022/01/16 00:22:36;;;;;;;53.67;26.25;;;;;;;0.58;100.00;102240.84;5237135;28;20581;-69
2022/01/16 00:25:08;;;;;;;47.58;24.80;;;;;;;0.58;100.00;102238.22;5242041;28;20753;-69
2022/01/16 00:27:39;;;;;;;48.08;24.45;;;;;;;0.53;100.00;102219.00;5236106;28;20044;-69
2022/01/16 00:30:11;;;;;;;48.70;24.50;;;;;;;0.54;100.00;102208.50;5240534;28;20106;-69
2022/01/16 00:32:43;;;;;;;48.10;25.63;;;;;;;0.48;100.00;102189.31;5240528;28;20116;-69
2022/01/16 00:35:15;;;;;;;47.25;24.85;;;;;;;0.49;100.00;102210.28;5239300;28;20021;-69
2022/01/16 00:37:48;;;;;;;48.83;25.25;;;;;;;0.45;100.00;102228.75;5238093;28;20360;-69
2022/01/16 00:40:19;;;;;;;48.40;26.48;;;;;;;0.44;100.00;102222.63;5241758;28;20056;-69
2022/01/16 00:42:51;;;;;;;49.10;26.00;;;;;;;0.47;100.00;102219.94;5240174;28;20581;-69
2022/01/16 00:45:28;;;;;;;50.70;26.75;;;;;;;0.46;100.00;102218.22;5241116;28;20053;-69
2022/01/16 00:48:02;;;;;;;52.22;26.85;;;;;;;0.44;100.00;102213.88;5246420;28;20423;-69
2022/01/16 00:50:34;;;;;;;54.33;26.30;;;;;;;0.43;100.00;102199.00;5239239;28;20025;-69
2022/01/16 00:53:06;;;;;;;48.97;25.17;;;;;;;0.44;100.00;102233.13;5237246;28;20295;-69
2022/01/16 00:55:38;;;;;;;51.83;25.58;;;;;;;0.45;100.00;102231.38;5244814;28;20055;-69
2022/01/16 00:58:10;;;;;;;52.38;25.88;;;;;;;0.41;100.00;102195.53;5246567;28;20065;-69
2022/01/16 01:00:41;;;;;;;55.13;26.63;;;;;;;0.40;100.00;102176.28;5242167;28;20120;-69
2022/01/16 01:03:12;;;;;;;55.78;27.00;;;;;;;0.46;100.00;102170.97;5241020;28;20032;-69
2022/01/16 01:05:43;;;;;;;61.47;27.60;;;;;;;0.37;100.00;102190.31;5244235;28;20028;-70
2022/01/16 01:08:15;;;;;;;52.90;25.73;;;;;;;0.41;100.00;102175.41;5242078;28;20033;-69
2022/01/16 01:10:49;;;;;;;52.40;25.70;;;;;;;0.42;100.00;102192.88;5241654;28;20049;-69
2022/01/16 01:13:23;;;;;;;;;;;;;;;0.49;100.00;102193.69;5252743;28;20495;-69
2022/01/16 01:16:02;;;;;;;56.83;27.38;;;;;;;0.43;100.00;102197.25;5249276;28;19924;-69
2022/01/16 01:18:34;;;;;;;58.58;27.23;;;;;;;0.43;100.00;102186.75;5244371;28;20039;-69
2022/01/16 01:21:15;;;;;;;52.70;26.73;;;;;;;0.44;100.00;102180.63;5250790;28;20076;-69
2022/01/16 01:23:47;;;;;;;56.33;26.70;;;;;;;0.48;100.00;102177.06;5249141;28;20021;-69
2022/01/16 01:26:20;;;;;;;57.63;27.40;;;;;;;0.50;100.00;102172.66;5251279;28;20030;-69
2022/01/16 01:28:51;;;;;;;58.55;27.23;;;;;;;0.56;100.00;102193.59;5248383;28;20597;-69
2022/01/16 01:31:22;;;;;;;57.03;26.35;;;;;;;0.57;100.00;102192.66;5255536;28;20020;-69
2022/01/16 01:33:54;;;;;;;63.10;28.60;;;;;;;0.52;100.00;102188.41;5248922;28;20037;-70
2022/01/16 01:36:25;;;;;;;63.38;28.58;;;;;;;0.52;100.00;102155.13;5246243;28;20499;-70
2022/01/16 01:38:57;;;;;;;64.47;28.10;;;;;;;0.47;100.00;102116.69;5247596;28;20025;-70
2022/01/16 01:41:29;;;;;;;62.55;28.25;;;;;;;0.51;100.00;102110.50;5247810;28;20113;-70
2022/01/16 01:52:31;;;;;;;76.78;30.90;;;;;;;0.60;100.00;102143.66;5246106;28;20072;-69
2022/01/16 01:55:02;;;;;;;83.82;30.60;;;;;;;0.52;100.00;102151.63;5249514;28;20443;-69
2022/01/16 01:57:34;;;;;;;79.65;31.17;;;;;;;0.63;100.00;102159.34;5249483;28;20037;-69
2022/01/16 02:00:06;;;;;;;77.30;29.15;;;;;;;0.65;100.00;102182.06;5249537;28;20068;-69
2022/01/16 02:02:54;;;;;;;86.70;30.50;;;;;;;0.56;100.00;102180.44;5249087;28;20071;-69
2022/01/16 02:05:25;;;;;;;79.25;29.00;;;;;;;0.53;100.00;102185.72;5246397;28;20031;-69
2022/01/16 02:07:57;;;;;;;101.50;30.15;;;;;;;0.38;100.00;102205.19;5250317;28;20465;-69
2022/01/16 02:10:28;;;;;;;67.00;29.20;;;;;;;0.47;100.00;102190.22;5247005;28;20053;-69
2022/01/16 02:13:04;;;;;;;81.20;31.23;;;;;;;0.35;100.00;102194.72;5239575;28;20052;-70
2022/01/16 02:30:13;;;;;;;64.70;29.83;;;;;;;0.35;100.00;102206.97;5250346;28;20060;-69
2022/01/16 02:35:09;;;;;;;70.80;29.55;;;;;;;0.31;100.00;102221.91;5239091;28;20033;-69
2022/01/16 02:37:40;;;;;;;61.00;28.75;;;;;;;0.31;100.00;102215.78;5247661;28;20060;-69
2022/01/16 02:40:18;;;;;;;68.35;29.75;;;;;;;0.26;100.00;102223.69;5245324;28;20074;-69
2022/01/16 02:42:51;;;;;;;77.35;30.25;;;;;;;0.27;100.00;102206.19;5245024;28;20374;-69
2022/01/16 02:45:36;;;;;;;66.93;30.00;;;;;;;0.34;100.00;102205.22;5247785;28;20515;-69
2022/01/16 02:48:07;;;;;;;62.92;29.70;;;;;;;0.41;100.00;102200.78;5246303;28;20040;-69
2022/01/16 02:50:39;;;;;;;83.35;32.47;;;;;;;0.26;100.00;102200.06;5246125;28;20033;-69
2022/01/16 02:53:12;;;;;;;72.20;32.08;;;;;;;0.27;100.00;102188.69;5247894;28;20033;-69
2022/01/16 02:55:45;;;;;;;71.80;31.20;;;;;;;0.38;100.00;102183.31;5245867;28;20039;-69
2022/01/16 02:58:16;;;;;;;78.82;32.30;;;;;;;0.39;100.00;102169.31;5254404;28;20040;-69
2022/01/16 03:00:47;;;;;;;66.25;32.05;;;;;;;0.47;100.00;102164.81;5243381;28;20036;-69
2022/01/16 03:03:19;;;;;;;66.20;32.65;;;;;;;0.50;100.00;102162.16;5241943;28;20024;-69
2022/01/16 03:05:50;;;;;;;71.88;32.40;;;;;;;0.53;100.00;102155.97;5241246;28;20039;-69
2022/01/16 03:08:21;;;;;;;70.03;32.50;;;;;;;0.50;100.00;102151.66;5246598;28;20482;-69
2022/01/16 03:11:13;;;;;;;74.53;34.28;;;;;;;0.46;100.00;102152.59;5244541;28;20128;-69
2022/01/16 03:13:49;;;;;;;71.47;32.75;;;;;;;0.45;100.00;102136.84;5244829;28;20116;-69
2022/01/16 03:16:21;;;;;;;76.55;35.60;;;;;;;0.55;100.00;102141.94;5246310;28;20025;-69
2022/01/16 03:21:55;;;;;;;79.45;36.03;;;;;;;0.58;100.00;102141.91;5245040;28;20037;-69
2022/01/16 03:24:32;;;;;;;76.63;35.10;;;;;;;0.61;100.00;102140.13;5247155;28;20132;-69
2022/01/16 03:27:06;;;;;;;76.20;35.90;;;;;;;0.62;100.00;102140.09;5253422;28;20386;-69
2022/01/16 03:29:39;;;;;;;80.22;37.22;;;;;;;0.64;100.00;102127.81;5249133;28;20035;-69
2022/01/16 03:32:13;;;;;;;86.38;39.60;;;;;;;0.54;100.00;102128.84;5251460;28;20060;-69
2022/01/16 03:34:45;;;;;;;85.43;37.95;;;;;;;0.61;100.00;102137.50;5244562;28;20359;-69
2022/01/16 03:37:17;;;;;;;79.85;38.28;;;;;;;0.60;100.00;102131.38;5247919;28;20029;-69
2022/01/16 03:39:49;;;;;;;86.40;39.22;;;;;;;0.70;100.00;102140.84;5241945;28;20036;-69
2022/01/16 03:42:26;;;;;;;85.28;38.05;;;;;;;0.65;100.00;102131.31;5244657;28;20029;-69
2022/01/16 03:44:57;;;;;;;83.07;40.40;;;;;;;0.61;100.00;102130.47;5244384;28;20025;-69
2022/01/16 03:47:28;;;;;;;85.45;40.33;;;;;;;0.66;100.00;102131.28;5246203;28;20039;-69
2022/01/16 03:50:00;;;;;;;86.95;39.58;;;;;;;0.70;100.00;102121.59;5247134;28;20040;-69
2022/01/16 03:52:32;;;;;;;83.47;39.55;;;;;;;0.76;100.00;102126.75;5243204;28;20035;-69
2022/01/16 03:55:04;;;;;;;82.25;40.13;;;;;;;0.74;100.00;102133.81;5243613;28;20017;-69
2022/01/16 03:57:36;;;;;;;88.65;41.28;;;;;;;0.68;100.00;102131.28;5250567;28;20037;-69
2022/01/16 04:00:08;;;;;;;89.82;41.92;;;;;;;0.66;100.00;102127.81;5242424;28;20036;-69
2022/01/16 04:02:39;;;;;;;86.57;38.97;;;;;;;0.77;100.00;102128.50;5249696;28;20029;-69
2022/01/16 04:05:10;;;;;;;90.82;40.60;;;;;;;0.74;100.00;102131.16;5242065;28;20030;-69
2022/01/16 04:07:42;;;;;;;80.40;39.85;;;;;;;0.81;100.00;102132.81;5241490;28;20029;-69
2022/01/16 04:10:13;;;;;;;86.18;41.05;;;;;;;0.78;100.00;102144.22;5249713;28;20049;-69
2022/01/16 04:12:46;;;;;;;80.50;39.53;;;;;;;0.80;100.00;102136.31;5248598;28;20739;-69
2022/01/16 04:17:50;;;;;;;80.03;40.13;;;;;;;0.81;100.00;102131.97;5242743;28;20090;-69
2022/01/16 04:20:21;;;;;;;77.60;40.15;;;;;;;0.85;100.00;102124.00;5250386;28;20025;-69
2022/01/16 04:22:52;;;;;;;82.70;41.47;;;;;;;0.89;100.00;102130.94;5244448;28;20554;-69
2022/01/16 04:25:24;;;;;;;84.05;40.35;;;;;;;0.85;100.00;102126.63;5245343;28;20475;-69
2022/01/16 04:27:55;;;;;;;76.13;39.45;;;;;;;0.87;100.00;102130.09;5250021;28;20025;-69
2022/01/16 04:30:26;;;;;;;78.53;39.90;;;;;;;0.86;100.00;102130.97;5245651;28;20447;-69
2022/01/16 04:32:58;;;;;;;76.85;38.92;;;;;;;0.88;100.00;102131.84;5253212;28;20475;-69
2022/01/16 04:35:29;;;;;;;81.20;41.72;;;;;;;0.83;100.00;102131.03;5250453;28;20067;-69
2022/01/16 04:38:00;;;;;;;76.93;40.70;;;;;;;0.91;100.00;102138.81;5253315;28;20136;-69
2022/01/16 04:40:41;;;;;;;78.22;39.35;;;;;;;0.87;100.00;102131.88;5245062;28;20038;-69
2022/01/16 04:46:03;;;;;;;74.57;39.65;;;;;;;0.89;100.00;102130.94;5249419;28;20535;-69
2022/01/16 04:48:34;;;;;;;80.43;41.85;;;;;;;0.80;100.00;102110.06;5257072;28;20060;-69
2022/01/16 04:51:05;;;;;;;74.70;40.60;;;;;;;0.80;100.00;102119.72;5254201;28;20045;-69
2022/01/16 04:53:38;;;;;;;75.63;40.72;;;;;;;0.85;100.00;102116.13;5250794;28;20143;-69
2022/01/16 04:56:10;;;;;;;82.60;41.22;;;;;;;0.79;100.00;102118.84;5253632;28;20534;-69
2022/01/16 04:58:42;;;;;;;76.60;40.67;;;;;;;0.84;100.00;102118.75;5256402;28;20113;-69
2022/01/16 05:01:13;;;;;;;80.47;41.55;;;;;;;0.82;100.00;102110.03;5250748;28;20036;-69
2022/01/16 05:03:45;;;;;;;83.05;41.65;;;;;;;0.80;100.00;102115.31;5250333;28;20029;-69
2022/01/16 05:06:16;;;;;;;78.93;43.20;;;;;;;0.81;100.00;102110.94;5255667;28;20470;-69
2022/01/16 05:08:48;;;;;;;81.93;42.63;;;;;;;0.77;100.00;102100.47;5257088;28;20079;-69
2022/01/16 05:11:24;;;;;;;86.43;44.53;;;;;;;0.75;100.00;102098.78;5246905;28;20049;-70
2022/01/16 05:16:34;;;;;;;83.78;44.40;;;;;;;0.84;100.00;102095.13;5253002;28;20401;-69
2022/01/16 05:19:12;;;;;;;85.00;43.38;;;;;;;0.86;100.00;102102.06;5253316;28;20032;-69
2022/01/16 05:21:43;;;;;;;88.70;44.58;;;;;;;0.84;100.00;102106.50;5253323;28;20037;-69
2022/01/16 05:24:14;;;;;;;89.32;46.65;;;;;;;0.83;100.00;102101.28;5251507;28;20056;-69
2022/01/16 05:26:46;;;;;;;86.10;45.35;;;;;;;0.81;100.00;102103.06;5256648;28;20043;-70
2022/01/16 05:29:17;;;;;;;86.63;45.28;;;;;;;0.84;100.00;102095.13;5253652;28;20037;-69
2022/01/16 05:31:48;;;;;;;96.28;47.53;;;;;;;0.81;100.00;102100.44;5250978;28;20078;-69
2022/01/16 05:34:21;;;;;;;86.25;45.63;;;;;;;0.80;100.00;102107.44;5260034;28;20025;-69
2022/01/16 05:36:53;;;;;;;91.32;47.38;;;;;;;0.89;100.00;102106.44;5256132;28;20075;-69
2022/01/16 05:39:24;;;;;;;88.72;46.42;;;;;;;0.87;100.00;102103.81;5251606;28;20453;-69
2022/01/16 05:41:56;;;;;;;87.65;46.22;;;;;;;0.88;100.00;102109.94;5246860;28;20127;-69
2022/01/16 05:44:27;;;;;;;86.07;46.85;;;;;;;0.90;100.00;102106.41;5247421;28;20033;-69
2022/01/16 05:47:02;;;;;;;90.47;46.67;;;;;;;0.88;100.00;102112.56;5249875;28;20036;-69
2022/01/16 05:49:33;;;;;;;96.38;48.00;;;;;;;0.94;100.00;102122.97;5248778;28;20390;-69
2022/01/16 05:52:05;;;;;;;86.28;47.33;;;;;;;0.93;100.00;102140.50;5248216;28;20040;-69
2022/01/16 05:54:36;;;;;;;94.40;49.80;;;;;;;0.92;100.00;102133.53;5251259;28;20538;-69
2022/01/16 05:57:08;;;;;;;94.07;49.03;;;;;;;0.95;100.00;102129.97;5249926;28;20045;-69
2022/01/16 05:59:39;;;;;;;101.65;48.70;;;;;;;0.93;100.00;102124.75;5250185;28;20044;-69
2022/01/16 06:02:11;;;;;;;97.75;49.80;;;;;;;0.94;100.00;102123.88;5254454;28;20025;-69
2022/01/16 06:04:42;;;;;;;95.15;50.25;;;;;;;1.00;100.00;102119.38;5245102;28;20359;-69
2022/01/16 06:07:13;;;;;;;102.13;50.83;;;;;;;0.99;100.00;102121.16;5248774;28;20060;-69
2022/01/16 06:09:45;;;;;;;97.63;50.33;;;;;;;1.01;100.00;102124.63;5250059;28;20053;-69
2022/01/16 06:12:16;;;;;;;109.72;52.25;;;;;;;1.03;100.00;102112.31;5247661;28;20415;-69
2022/01/16 06:14:47;;;;;;;105.13;53.00;;;;;;;1.07;100.00;102127.13;5248042;28;20032;-69
2022/01/16 06:17:19;;;;;;;101.90;52.00;;;;;;;1.11;100.00;102125.34;5245068;28;20032;-69
2022/01/16 06:19:50;;;;;;;104.65;52.08;;;;;;;1.08;100.00;102117.53;5245289;28;20052;-69
2022/01/16 06:22:21;;;;;;;107.05;51.40;;;;;;;1.11;100.00;102114.81;5248197;28;20036;-69
2022/01/16 06:24:52;;;;;;;109.13;53.67;;;;;;;1.11;100.00;102120.06;5251081;28;20032;-69
2022/01/16 06:27:24;;;;;;;110.53;55.30;;;;;;;1.14;100.00;102120.91;5254379;28;20040;-69
2022/01/16 06:29:55;;;;;;;107.32;52.97;;;;;;;1.16;100.00;102123.50;5251840;28;20059;-69
2022/01/16 06:32:26;;;;;;;109.07;54.60;;;;;;;1.20;100.00;102122.56;5259241;28;20399;-69
2022/01/16 06:34:58;;;;;;;107.90;53.60;;;;;;;1.23;100.00;102130.41;5255958;28;20066;-69
2022/01/16 06:37:29;;;;;;;107.57;53.90;;;;;;;1.26;100.00;102140.84;5249852;28;20372;-69
2022/01/16 06:40:01;;;;;;;115.25;54.53;;;;;;;1.28;100.00;102154.84;5250278;28;20120;-70
2022/01/16 06:42:33;;;;;;;112.25;54.85;;;;;;;1.27;100.00;102153.13;5247456;28;20032;-69
2022/01/16 06:45:07;;;;;;;114.28;55.92;;;;;;;1.35;100.00;102159.09;5251153;28;20021;-69
2022/01/16 06:47:38;;;;;;;109.88;54.30;;;;;;;1.34;100.00;102154.75;5251918;28;20040;-69
2022/01/16 06:50:10;;;;;;;114.22;54.63;;;;;;;1.39;100.00;102162.56;5250268;28;20530;-69
2022/01/16 06:52:41;;;;;;;110.20;53.17;;;;;;;1.41;100.00;102155.50;5251760;28;20131;-69
2022/01/16 06:55:13;;;;;;;109.68;53.50;;;;;;;1.43;100.00;102163.38;5243018;28;20033;-70
2022/01/16 06:57:44;;;;;;;111.13;55.92;;;;;;;1.46;100.00;102155.41;5251647;28;20037;-69
2022/01/16 07:00:15;;;;;;;106.60;52.20;;;;;;;1.50;100.00;102157.97;5248582;28;20033;-69
2022/01/16 07:02:47;;;;;;;113.18;52.60;;;;;;;1.50;100.00;102160.63;5252929;28;20052;-69
2022/01/16 07:05:18;;;;;;;107.45;52.00;;;;;;;1.53;100.00;102170.19;5245908;28;20475;-69
2022/01/16 07:07:50;;;;;;;104.25;51.47;;;;;;;1.56;100.00;102178.06;5256643;28;20028;-69
2022/01/16 07:10:23;;;;;;;102.78;51.95;;;;;;;1.55;100.00;102168.41;5243660;28;20406;-69
2022/01/16 07:12:54;;;;;;;101.90;50.45;;;;;;;1.57;100.00;102174.50;5244221;28;20036;-70
2022/01/16 07:15:26;;;;;;;104.60;51.35;;;;;;;1.61;100.00;102175.34;5246286;28;20029;-69
2022/01/16 07:17:57;;;;;;;105.55;50.13;;;;;;;1.62;100.00;102198.97;5247028;28;20085;-69
2022/01/16 07:20:29;;;;;;;102.50;50.05;;;;;;;1.63;100.00;102203.38;5248123;28;20496;-69
2022/01/16 07:23:00;;;;;;;101.57;50.03;;;;;;;1.63;100.00;102200.75;5245626;28;20047;-69
2022/01/16 07:25:31;;;;;;;100.05;48.58;;;;;;;1.63;100.00;102211.25;5248522;28;20489;-69
2022/01/16 07:28:03;;;;;;;95.30;47.53;;;;;;;1.66;100.00;102216.44;5245291;28;20514;-70
2022/01/16 07:30:38;;;;;;;95.22;47.50;;;;;;;1.67;100.00;102214.66;5245669;28;20116;-69
2022/01/16 07:33:10;;;;;;;96.30;47.72;;;;;;;1.68;100.00;102214.66;5248089;28;20037;-69
2022/01/16 07:35:41;;;;;;;103.13;46.75;;;;;;;1.70;100.00;102222.53;5247368;28;20032;-69
2022/01/16 07:38:12;;;;;;;96.53;47.53;;;;;;;1.74;100.00;102237.38;5245988;28;20025;-69
2022/01/16 07:40:44;;;;;;;96.20;47.25;;;;;;;1.75;100.00;102224.19;5247835;28;20041;-69
2022/01/16 07:43:15;;;;;;;94.00;46.15;;;;;;;1.78;100.00;102228.50;5245060;28;20132;-69
2022/01/16 07:45:46;;;;;;;96.70;46.75;;;;;;;1.81;100.00;102219.72;5243789;28;20033;-70
2022/01/16 07:48:17;;;;;;;92.72;44.60;;;;;;;1.83;100.00;102231.09;5249727;28;20048;-70
2022/01/16 07:50:49;;;;;;;89.30;44.63;;;;;;;1.87;100.00;102241.53;5246804;28;20032;-70
2022/01/16 07:53:20;;;;;;;91.80;44.83;;;;;;;1.89;100.00;102244.13;5253149;28;20064;-69
2022/01/16 07:55:51;;;;;;;86.82;42.90;;;;;;;1.91;100.00;102245.81;5246724;28;20516;-69
2022/01/16 07:58:22;;;;;;;92.93;44.55;;;;;;;1.91;100.00;102260.75;5247466;28;20854;-69
2022/01/16 08:00:54;;;;;;;88.45;42.90;;;;;;;2.00;100.00;102257.97;5248851;28;20032;-69
2022/01/16 08:03:25;;;;;;;86.22;43.38;;;;;;;1.96;100.00;102254.53;5251173;28;20116;-69
2022/01/16 08:05:56;;;;;;;87.90;44.22;;;;;;;2.01;100.00;102264.94;5247134;28;20060;-69
2022/01/16 08:08:28;;;;;;;91.38;44.20;;;;;;;2.03;100.00;102263.16;5253665;28;20036;-69
2022/01/16 08:10:59;;;;;;;88.38;43.25;;;;;;;2.10;100.00;102259.53;5243045;28;20053;-69
2022/01/16 08:13:30;;;;;;;80.88;42.92;;;;;;;2.08;100.00;102258.69;5244832;28;20283;-69
2022/01/16 08:16:06;;;;;;;93.30;43.55;;;;;;;2.11;100.00;102255.13;5241068;28;20109;-69
2022/01/16 08:18:37;;;;;;;87.53;43.97;;;;;;;2.12;100.00;102254.25;5242402;28;20037;-69
2022/01/16 08:21:08;;;;;;;86.90;43.92;;;;;;;2.15;100.00;102239.25;5247461;28;20474;-69
2022/01/16 08:23:40;;;;;;;90.30;43.10;;;;;;;2.19;100.00;102241.81;5248419;28;20037;-69
2022/01/16 08:26:11;;;;;;;87.20;41.95;;;;;;;2.20;100.00;102233.03;5249242;28;20502;-69
2022/01/16 08:28:42;;;;;;;91.88;44.13;;;;;;;2.23;100.00;102239.13;5248806;28;20482;-69
2022/01/16 08:31:14;;;;;;;85.82;43.20;;;;;;;2.25;100.00;102236.47;5245799;28;20187;-70
2022/01/16 08:33:45;;;;;;;91.38;43.65;;;;;;;2.26;100.00;102236.44;5246249;28;20025;-69
2022/01/16 08:36:17;;;;;;;88.97;43.63;;;;;;;2.27;100.00;102237.28;5247292;28;20037;-69
2022/01/16 08:38:50;;;;;;;90.65;43.72;;;;;;;2.31;100.00;102237.19;5247086;28;20520;-69
2022/01/16 08:41:21;;;;;;;85.43;42.65;;;;;;;2.33;100.00;102231.91;5244710;28;20060;-69
2022/01/16 08:43:53;;;;;;;88.93;42.97;;;;;;;2.37;100.00;102241.47;5245674;28;20534;-69
2022/01/16 08:46:25;;;;;;;89.60;42.88;;;;;;;2.38;100.00;102239.69;5243562;28;20518;-69
2022/01/16 08:48:56;;;;;;;89.13;42.88;;;;;;;2.42;100.00;102238.75;5245347;28;20055;-69
2022/01/16 08:51:27;;;;;;;90.10;42.60;;;;;;;2.46;100.00;102245.69;5242911;28;20155;-69
2022/01/16 08:53:59;;;;;;;90.38;43.17;;;;;;;2.47;100.00;102261.44;5244424;28;20335;-69
2022/01/16 08:56:30;;;;;;;88.07;42.40;;;;;;;2.55;100.00;102256.03;5247668;28;20541;-69
2022/01/16 08:59:03;;;;;;;97.53;43.08;;;;;;;2.57;100.00;102258.63;5245553;28;20061;-69
2022/01/16 09:01:34;;;;;;;92.13;43.50;;;;;;;2.60;100.00;102269.97;5242057;28;20084;-69
2022/01/16 09:04:05;;;;;;;91.45;44.03;;;;;;;2.63;100.00;102269.94;5240536;28;20060;-69
2022/01/16 09:06:36;;;;;;;99.43;44.03;;;;;;;2.65;100.00;102269.91;5238769;28;20033;-69
2022/01/16 09:09:08;;;;;;;97.57;44.78;;;;;;;2.69;100.00;102271.59;5240543;28;20102;-69
2022/01/16 09:11:39;;;;;;;86.15;41.85;;;;;;;2.74;100.00;102270.59;5242208;28;20124;-69
2022/01/16 09:14:10;;;;;;;89.13;42.78;;;;;;;2.81;100.00;102279.22;5241437;28;20095;-69
2022/01/16 09:16:42;;;;;;;88.88;42.90;;;;;;;2.83;100.00;102285.31;5240073;28;20033;-69
2022/01/16 09:19:13;;;;;;;87.65;41.78;;;;;;;2.89;100.00;102279.91;5240488;28;20540;-69
2022/01/16 09:21:45;;;;;;;91.22;41.50;;;;;;;2.92;100.00;102294.81;5243240;28;20032;-69
2022/01/16 09:24:16;;;;;;;92.78;43.78;;;;;;;2.94;100.00;102309.69;5252490;28;20021;-69
2022/01/16 09:26:48;;;;;;;97.43;43.90;;;;;;;2.97;100.00;102300.84;5250491;28;20035;-69
2022/01/16 09:29:19;;;;;;;102.60;46.03;;;;;;;2.99;100.00;102293.75;5248842;28;20585;-69
2022/01/16 09:31:50;;;;;;;90.45;43.10;;;;;;;3.09;100.00;102292.69;5252437;28;20063;-69
2022/01/16 09:34:21;;;;;;;95.57;44.10;;;;;;;3.09;100.00;102292.69;5252633;28;20032;-69
2022/01/16 09:36:53;;;;;;;99.28;43.75;;;;;;;3.13;100.00;102301.41;5252416;28;20067;-69
2022/01/16 09:39:24;;;;;;;102.75;45.50;;;;;;;3.15;100.00;102302.22;5250652;28;20051;-69
2022/01/16 09:41:56;;;;;;;108.32;44.80;;;;;;;3.16;100.00;102314.50;5254317;28;20036;-69
2022/01/16 09:44:28;;;;;;;111.60;45.65;;;;;;;3.20;100.00;102310.03;5249598;28;20025;-69
2022/01/16 09:47:00;;;;;;;103.60;46.95;;;;;;;3.19;100.00;102313.59;5251227;28;20452;-69
2022/01/16 09:49:31;;;;;;;106.43;45.38;;;;;;;3.24;100.00;102322.25;5252316;28;20037;-69
2022/01/16 09:52:03;;;;;;;105.85;45.00;;;;;;;3.26;100.00;102315.16;5254957;28;20040;-69
2022/01/16 09:54:37;;;;;;;111.82;47.10;;;;;;;3.29;100.00;102318.59;5263992;28;20029;-69
2022/01/16 09:57:10;;;;;;;113.35;46.70;;;;;;;3.30;100.00;102328.28;5245297;28;20025;-69
2022/01/16 09:59:43;;;;;;;115.82;47.05;;;;;;;3.34;100.00;102329.94;5240652;28;20044;-69
2022/01/16 10:02:14;;;;;;;111.22;46.70;;;;;;;3.36;100.00;102337.81;5250370;28;20148;-69
2022/01/16 10:04:46;;;;;;;114.90;46.88;;;;;;;3.46;100.00;102322.66;5243348;28;20354;-69
2022/01/16 10:07:18;;;;;;;114.20;47.25;;;;;;;3.48;100.00;102342.81;5243159;28;20061;-69
2022/01/16 10:10:12;;;;;;;110.43;45.58;;;;;;;3.57;100.00;102352.28;5241338;28;20040;-69
2022/01/16 10:12:52;;;;;;;116.82;46.63;;;;;;;3.62;100.00;102354.81;5242826;28;20024;-69
2022/01/16 10:15:26;;;;;;;115.53;46.15;;;;;;;3.65;100.00;102344.19;5245319;28;20410;-69
2022/01/16 10:17:59;;;;;;;111.13;44.60;;;;;;;3.65;100.00;102357.41;5246113;28;20038;-69
2022/01/16 10:20:42;;;;;;;91.03;37.07;;;;;;;3.69;100.00;102357.28;5244843;28;20028;-69
2022/01/16 10:23:21;;;;;;;109.68;42.60;;;;;;;3.73;100.00;102358.06;5245209;28;20052;-69
2022/01/16 10:25:53;;;;;;;113.50;45.40;;;;;;;3.71;100.00;102363.38;5244770;28;20029;-69
2022/01/16 10:28:26;;;;;;;106.65;43.00;;;;;;;3.72;100.00;102367.78;5250964;28;20025;-69
2022/01/16 10:30:58;;;;;;;112.75;44.78;;;;;;;3.75;100.00;102369.47;5250982;28;20397;-69
2022/01/16 10:33:33;;;;;;;107.85;42.58;;;;;;;3.79;100.00;102371.13;5251474;28;20108;-70
2022/01/16 10:36:04;;;;;;;102.43;42.53;;;;;;;3.81;100.00;102356.13;5254700;28;20040;-69
2022/01/16 10:38:36;;;;;;;106.93;43.47;;;;;;;3.83;100.00;102364.88;5250980;28;20048;-69
2022/01/16 10:41:13;;;;;;;108.07;42.45;;;;;;;3.84;100.00;102363.13;5247107;28;20032;-69
2022/01/16 10:43:46;;;;;;;106.05;44.42;;;;;;;3.86;100.00;102366.59;5243217;28;20028;-69
2022/01/16 10:46:26;;;;;;;99.28;40.15;;;;;;;3.92;100.00;102374.34;5251001;28;20039;-69
2022/01/16 10:49:18;;;;;;;103.43;41.53;;;;;;;3.97;100.00;102358.38;5253832;28;20063;-69
2022/01/16 10:52:01;;;;;;;102.20;41.30;;;;;;;4.01;100.00;102366.22;5251873;28;20055;-69
2022/01/16 10:54:35;;;;;;;91.45;40.17;;;;;;;4.05;100.00;102362.59;5249616;28;20399;-69
2022/01/16 10:57:27;;;;;;;100.73;40.03;;;;;;;4.15;100.00;102363.22;5243892;28;20636;-69
2022/01/16 11:00:16;;;;;;;92.13;37.60;;;;;;;4.18;100.00;102364.91;5254580;28;20283;-69
2022/01/16 11:02:50;;;;;;;88.90;38.10;;;;;;;4.18;100.00;102372.84;5255924;28;20036;-69
2022/01/16 11:05:22;;;;;;;96.43;40.70;;;;;;;4.22;100.00;102379.78;5252844;28;20478;-69
2022/01/16 11:07:59;;;;;;;90.80;36.88;;;;;;;4.25;100.00;102371.78;5252891;28;20082;-69
2022/01/16 11:10:34;;;;;;;92.82;40.00;;;;;;;4.24;100.00;102375.34;5253501;28;20040;-69
2022/01/16 11:13:09;;;;;;;86.30;37.30;;;;;;;4.23;100.00;102373.59;5253258;28;20032;-70
2022/01/16 11:15:43;;;;;;;87.22;37.97;;;;;;;4.20;100.00;102379.84;5253150;28;20447;-69
2022/01/16 11:18:16;;;;;;;91.10;37.85;;;;;;;4.25;100.00;102385.00;5258480;28;20552;-70
2022/01/16 11:20:56;;;;;;;87.43;38.10;;;;;;;4.24;100.00;102383.28;5254299;28;20044;-70
2022/01/16 11:26:05;;;;;;;88.78;37.75;;;;;;;4.28;100.00;102366.44;5251974;28;20828;-70
2022/01/16 11:28:38;;;;;;;91.15;39.00;;;;;;;4.26;100.00;102366.47;5253463;28;20477;-70
2022/01/16 11:31:12;;;;;;;87.13;39.55;;;;;;;4.26;100.00;102373.53;5252811;28;20041;-70
2022/01/16 11:33:44;;;;;;;93.85;39.30;;;;;;;4.27;100.00;102378.75;5254508;28;20375;-70
2022/01/16 11:36:19;;;;;;;85.38;38.55;;;;;;;4.28;100.00;102377.00;5252896;28;20033;-69
2022/01/16 11:38:55;;;;;;;87.82;38.17;;;;;;;4.26;100.00;102378.81;5251782;28;20032;-69
2022/01/16 11:41:33;;;;;;;84.28;38.40;;;;;;;4.23;100.00;102373.59;5246869;28;20035;-69
2022/01/16 11:44:06;;;;;;;82.50;36.05;;;;;;;4.26;100.00;102377.03;5250670;28;20032;-69
2022/01/16 11:46:48;;;;;;;81.80;36.28;;;;;;;4.23;100.00;102374.44;5256341;28;20060;-69
2022/01/16 11:49:43;;;;;;;83.38;37.67;;;;;;;4.25;100.00;102369.13;5253477;28;20036;-69
2022/01/16 11:52:17;;;;;;;84.25;36.72;;;;;;;4.23;100.00;102374.44;5245280;28;20071;-69
2022/01/16 11:54:50;;;;;;;85.53;36.70;;;;;;;4.23;100.00;102374.44;5251033;28;20379;-70
2022/01/16 11:57:24;;;;;;;88.97;37.65;;;;;;;4.28;100.00;102375.22;5253810;28;20037;-70
2022/01/16 12:00:12;;;;;;;84.68;37.90;;;;;;;4.29;100.00;102378.72;5246748;28;20059;-69
2022/01/16 12:02:48;;;;;;;89.45;37.40;;;;;;;4.25;100.00;102377.94;5251152;28;20067;-69
2022/01/16 12:05:21;;;;;;;81.82;35.20;;;;;;;4.22;100.00;102375.38;5246313;28;20057;-69
2022/01/16 12:07:58;;;;;;;82.78;37.20;;;;;;;4.27;100.00;102367.31;5252539;28;21030;-70
2022/01/16 12:10:36;;;;;;;77.47;35.53;;;;;;;4.31;100.00;102375.16;5250304;28;20948;-70
2022/01/16 12:13:44;;;;;;;79.15;34.80;;;;;;;4.30;100.00;102365.47;5250610;28;20064;-70
2022/01/16 12:16:35;;;;;;;83.57;36.40;;;;;;;4.34;100.00;102370.69;5255171;28;20115;-70